Time;durP1;ratioP1;P1;durP2;ratioP2;P2;SDS_P1;SDS_P2;PMS_P1;PMS_P2;Temp;Humidity;BMP_temperature;BMP_pressure;BME280_temperature;BME280_humidity;BME280_pressure;Samples;Min_cycle;Max_cycle;Signal;HPM_P1;HPM_P2
2021/07/23 00:02:04;;;;;;;8.15;2.55;;;;;;;;;;5022743;28;20038;-52
2021/07/23 00:04:35;;;;;;;5.47;2.45;;;;;;;;;;5017641;28;20041;-56
2021/07/23 00:07:03;;;;;;;6.28;2.70;;;;;;;;;;5000753;28;20042;-55
2021/07/23 00:09:32;;;;;;;5.38;2.42;;;;;;;;;;5006245;28;20049;-56
2021/07/23 00:11:58;;;;;;;7.18;2.42;;;;;;;;;;5017690;28;20044;-54
2021/07/23 00:14:25;;;;;;;6.82;2.50;;;;;;;;;;5021226;28;20038;-56
2021/07/23 00:16:52;;;;;;;7.32;2.47;;;;;;;;;;5014857;28;20045;-53
2021/07/23 00:19:18;;;;;;;6.80;2.63;;;;;;;;;;5020681;28;20102;-55
2021/07/23 00:21:46;;;;;;;5.80;2.28;;;;;;;;;;5016924;28;20053;-54
2021/07/23 00:24:13;;;;;;;5.65;2.33;;;;;;;;;;5021091;28;20046;-55
2021/07/23 00:26:40;;;;;;;8.63;3.00;;;;;;;;;;5017305;28;20099;-55
2021/07/23 00:29:09;;;;;;;8.18;2.40;;;;;;;;;;5021183;28;20050;-53
2021/07/23 00:31:36;;;;;;;9.20;2.60;;;;;;;;;;5017757;28;20037;-55
2021/07/23 00:34:02;;;;;;;5.10;2.30;;;;;;;;;;5021607;28;20034;-56
2021/07/23 00:36:29;;;;;;;5.78;2.90;;;;;;;;;;5016668;28;20037;-56
2021/07/23 00:38:57;;;;;;;8.38;2.50;;;;;;;;;;5021726;28;20061;-54
2021/07/23 00:41:23;;;;;;;9.27;2.40;;;;;;;;;;5017956;28;20049;-54
2021/07/23 00:43:49;;;;;;;10.20;3.00;;;;;;;;;;5021885;28;20060;-55
2021/07/23 00:46:16;;;;;;;4.72;2.38;;;;;;;;;;5019571;28;20100;-55
2021/07/23 00:48:43;;;;;;;7.00;2.63;;;;;;;;;;5021332;28;20034;-56
2021/07/23 00:51:10;;;;;;;7.75;3.00;;;;;;;;;;5021789;28;20056;-54
2021/07/23 00:53:36;;;;;;;7.05;2.60;;;;;;;;;;5016725;28;20041;-55
2021/07/23 00:56:04;;;;;;;7.57;2.40;;;;;;;;;;5022092;28;20050;-55
2021/07/23 00:58:31;;;;;;;8.15;2.53;;;;;;;;;;5019711;28;20037;-54
2021/07/23 01:00:59;;;;;;;9.10;2.70;;;;;;;;;;5024853;28;20074;-56
2021/07/23 01:03:25;;;;;;;5.95;2.92;;;;;;;;;;5021342;28;20045;-49
2021/07/23 01:05:52;;;;;;;6.10;2.65;;;;;;;;;;5027936;28;20033;-55
2021/07/23 01:08:20;;;;;;;7.05;2.92;;;;;;;;;;5021947;28;20045;-53
2021/07/23 01:10:46;;;;;;;7.70;2.75;;;;;;;;;;5023813;28;20041;-55
2021/07/23 01:13:14;;;;;;;6.03;2.90;;;;;;;;;;5020373;28;20053;-56
2021/07/23 01:15:41;;;;;;;5.68;2.50;;;;;;;;;;5025146;28;20066;-56
2021/07/23 01:18:08;;;;;;;11.18;2.85;;;;;;;;;;5021947;28;20037;-51
2021/07/23 01:20:34;;;;;;;5.53;2.50;;;;;;;;;;5023663;28;20037;-52
2021/07/23 01:23:01;;;;;;;5.55;2.80;;;;;;;;;;5020207;28;20052;-55
2021/07/23 01:25:30;;;;;;;6.70;2.60;;;;;;;;;;5023370;28;20049;-53
2021/07/23 01:27:57;;;;;;;10.25;2.75;;;;;;;;;;5020305;28;20103;-53
2021/07/23 01:30:25;;;;;;;7.65;2.67;;;;;;;;;;5023623;28;20115;-54
2021/07/23 01:32:52;;;;;;;7.55;2.85;;;;;;;;;;5022964;28;20049;-57
2021/07/23 01:35:18;;;;;;;7.03;2.83;;;;;;;;;;5023730;28;20038;-54
2021/07/23 01:37:45;;;;;;;8.32;3.20;;;;;;;;;;5023143;28;20034;-55
2021/07/23 01:40:12;;;;;;;5.50;2.55;;;;;;;;;;5021442;28;20484;-52
2021/07/23 01:42:40;;;;;;;6.70;2.85;;;;;;;;;;5024644;28;20033;-55
2021/07/23 01:45:07;;;;;;;6.50;2.53;;;;;;;;;;5020239;28;20057;-55
2021/07/23 01:47:34;;;;;;;7.07;3.05;;;;;;;;;;5024703;28;20049;-56
2021/07/23 01:50:01;;;;;;;5.97;2.88;;;;;;;;;;5019312;28;20041;-53
2021/07/23 01:52:29;;;;;;;6.63;2.70;;;;;;;;;;5023894;28;20037;-55
2021/07/23 01:54:55;;;;;;;7.88;2.97;;;;;;;;;;5020405;28;20341;-56
2021/07/23 01:57:22;;;;;;;9.18;2.80;;;;;;;;;;5023939;28;20038;-54
2021/07/23 01:59:50;;;;;;;6.80;3.05;;;;;;;;;;5019799;28;20033;-55
2021/07/23 02:02:16;;;;;;;6.47;2.67;;;;;;;;;;5020572;28;20053;-55
2021/07/23 02:04:42;;;;;;;9.88;3.60;;;;;;;;;;5036931;28;20373;-53
2021/07/23 02:07:10;;;;;;;7.22;3.35;;;;;;;;;;5023214;28;20045;-55
2021/07/23 02:09:36;;;;;;;7.57;3.13;;;;;;;;;;5021416;28;20185;-55
2021/07/23 02:12:03;;;;;;;8.95;3.40;;;;;;;;;;5022955;28;20041;-55
2021/07/23 02:14:30;;;;;;;8.77;3.38;;;;;;;;;;5021268;28;20041;-52
2021/07/23 02:16:58;;;;;;;6.45;3.10;;;;;;;;;;5021824;28;20200;-55
2021/07/23 02:19:24;;;;;;;9.63;3.22;;;;;;;;;;5023307;28;20164;-53
2021/07/23 02:21:51;;;;;;;7.97;3.35;;;;;;;;;;5020677;28;20050;-55
2021/07/23 02:24:19;;;;;;;7.28;3.05;;;;;;;;;;5025584;28;20056;-55
2021/07/23 02:26:45;;;;;;;10.20;3.03;;;;;;;;;;5018770;28;20283;-54
2021/07/23 02:29:12;;;;;;;7.28;3.00;;;;;;;;;;5023310;28;20026;-53
2021/07/23 02:31:38;;;;;;;7.32;2.92;;;;;;;;;;5019606;28;20062;-50
2021/07/23 02:34:06;;;;;;;8.50;3.63;;;;;;;;;;5023768;28;20029;-55
2021/07/23 02:36:33;;;;;;;7.15;3.55;;;;;;;;;;5021680;28;20058;-54
2021/07/23 02:38:59;;;;;;;9.07;3.47;;;;;;;;;;5023309;28;20038;-52
2021/07/23 02:41:25;;;;;;;6.10;3.22;;;;;;;;;;5019677;28;20046;-52
2021/07/23 02:43:52;;;;;;;9.77;3.63;;;;;;;;;;5023108;28;20045;-55
2021/07/23 02:46:19;;;;;;;11.63;3.67;;;;;;;;;;5021412;28;20132;-53
2021/07/23 02:48:45;;;;;;;8.73;3.03;;;;;;;;;;5024171;28;20115;-54
2021/07/23 02:51:13;;;;;;;5.93;3.20;;;;;;;;;;5018772;28;20045;-52
2021/07/23 02:53:39;;;;;;;6.72;3.30;;;;;;;;;;5022215;28;20057;-54
2021/07/23 02:56:07;;;;;;;7.60;3.38;;;;;;;;;;5022549;28;20048;-52
2021/07/23 02:58:36;;;;;;;6.63;3.20;;;;;;;;;;5022573;28;20061;-56
2021/07/23 03:01:03;;;;;;;5.57;2.90;;;;;;;;;;5022721;28;20018;-54
2021/07/23 03:03:29;;;;;;;6.13;3.30;;;;;;;;;;5018654;28;20118;-56
2021/07/23 03:05:56;;;;;;;6.82;3.20;;;;;;;;;;5023875;28;20049;-53
2021/07/23 03:08:23;;;;;;;7.40;3.08;;;;;;;;;;5019562;28;20033;-55
2021/07/23 03:10:50;;;;;;;8.03;3.70;;;;;;;;;;5023187;28;20049;-54
2021/07/23 03:13:16;;;;;;;8.18;3.25;;;;;;;;;;5018373;28;20180;-54
2021/07/23 03:15:43;;;;;;;7.80;3.35;;;;;;;;;;5022307;28;20046;-54
2021/07/23 03:18:10;;;;;;;7.68;3.10;;;;;;;;;;5019523;28;20319;-56
2021/07/23 03:20:37;;;;;;;9.35;3.58;;;;;;;;;;5021671;28;20046;-52
2021/07/23 03:23:04;;;;;;;7.97;3.50;;;;;;;;;;5018343;28;20060;-54
2021/07/23 03:25:32;;;;;;;8.27;3.15;;;;;;;;;;5021639;28;20038;-53
2021/07/23 03:27:59;;;;;;;10.32;3.33;;;;;;;;;;5018084;28;20038;-55
2021/07/23 03:30:27;;;;;;;8.57;3.67;;;;;;;;;;5022408;28;20188;-55
2021/07/23 03:32:53;;;;;;;9.35;3.58;;;;;;;;;;5019422;28;20124;-55
2021/07/23 03:35:20;;;;;;;9.07;3.28;;;;;;;;;;5024121;28;20054;-56
2021/07/23 03:37:46;;;;;;;9.15;3.28;;;;;;;;;;5020913;28;20058;-54
2021/07/23 03:40:13;;;;;;;6.97;3.17;;;;;;;;;;5019979;28;20046;-54
2021/07/23 03:42:40;;;;;;;6.75;3.05;;;;;;;;;;5023454;28;20057;-52
2021/07/23 03:45:07;;;;;;;10.43;3.67;;;;;;;;;;5018458;28;20037;-56
2021/07/23 03:47:33;;;;;;;7.28;3.03;;;;;;;;;;5023112;28;20061;-55
2021/07/23 03:50:00;;;;;;;8.38;2.88;;;;;;;;;;5018945;28;20049;-54
2021/07/23 03:52:26;;;;;;;6.68;3.28;;;;;;;;;;5021291;28;20062;-55
2021/07/23 03:54:53;;;;;;;8.00;3.78;;;;;;;;;;5018809;28;20042;-56
2021/07/23 03:57:22;;;;;;;8.10;3.30;;;;;;;;;;5024056;28;20049;-54
2021/07/23 03:59:50;;;;;;;10.20;3.72;;;;;;;;;;5018835;28;20041;-55
2021/07/23 04:02:16;;;;;;;6.97;3.30;;;;;;;;;;5020250;28;20057;-50
2021/07/23 04:04:43;;;;;;;6.75;3.67;;;;;;;;;;5017783;28;20184;-53
2021/07/23 04:07:09;;;;;;;6.50;3.25;;;;;;;;;;5024486;28;20038;-54
2021/07/23 04:09:36;;;;;;;8.00;3.72;;;;;;;;;;5021652;28;20045;-52
2021/07/23 04:12:02;;;;;;;6.35;3.08;;;;;;;;;;5025948;28;20049;-53
2021/07/23 04:14:28;;;;;;;7.57;3.38;;;;;;;;;;5019560;28;20148;-53
2021/07/23 04:16:58;;;;;;;7.22;3.85;;;;;;;;;;5021287;28;20033;-55
2021/07/23 04:19:26;;;;;;;8.48;3.45;;;;;;;;;;5019844;28;20140;-52
2021/07/23 04:21:52;;;;;;;10.68;4.05;;;;;;;;;;5020736;28;20054;-55
2021/07/23 04:24:19;;;;;;;8.80;3.85;;;;;;;;;;5021960;28;20092;-54
2021/07/23 04:26:45;;;;;;;7.57;3.88;;;;;;;;;;5019404;28;20046;-55
2021/07/23 04:29:12;;;;;;;7.57;3.50;;;;;;;;;;5019972;28;20058;-55
2021/07/23 04:31:38;;;;;;;7.70;3.90;;;;;;;;;;5017459;28;20038;-55
2021/07/23 04:34:06;;;;;;;9.02;3.67;;;;;;;;;;5021913;28;20041;-55
2021/07/23 04:36:33;;;;;;;6.00;3.27;;;;;;;;;;5020890;28;20078;-55
2021/07/23 04:39:03;;;;;;;7.22;3.60;;;;;;;;;;5024008;28;20358;-53
2021/07/23 04:41:29;;;;;;;6.63;3.33;;;;;;;;;;5019070;28;20048;-51
2021/07/23 04:43:56;;;;;;;10.20;3.95;;;;;;;;;;5024359;28;20073;-54
2021/07/23 04:46:22;;;;;;;6.65;3.42;;;;;;;;;;5022235;28;20046;-54
2021/07/23 04:48:49;;;;;;;9.30;3.65;;;;;;;;;;5024707;28;20126;-53
2021/07/23 04:51:16;;;;;;;10.52;3.90;;;;;;;;;;5020508;28;20053;-50
2021/07/23 04:53:43;;;;;;;7.07;3.80;;;;;;;;;;5022635;28;20131;-56
2021/07/23 04:56:09;;;;;;;12.30;3.92;;;;;;;;;;5019652;28;20050;-54
2021/07/23 04:58:36;;;;;;;6.97;3.45;;;;;;;;;;5024168;28;20114;-52
2021/07/23 05:01:02;;;;;;;7.65;3.67;;;;;;;;;;5022384;28;20033;-52
2021/07/23 05:03:32;;;;;;;7.93;3.22;;;;;;;;;;5022761;28;20050;-55
2021/07/23 05:06:01;;;;;;;8.40;3.75;;;;;;;;;;5024111;28;20042;-55
2021/07/23 05:08:29;;;;;;;7.13;2.95;;;;;;;;;;5023187;28;20069;-55
2021/07/23 05:10:56;;;;;;;10.15;3.72;;;;;;;;;;5038142;28;20053;-54
2021/07/23 05:13:22;;;;;;;10.10;3.80;;;;;;;;;;5025515;28;20049;-55
2021/07/23 05:15:53;;;;;;;6.97;3.50;;;;;;;;;;5023359;28;20057;-51
2021/07/23 05:18:21;;;;;;;8.45;3.72;;;;;;;;;;5020382;28;20118;-54
2021/07/23 05:20:48;;;;;;;9.68;3.30;;;;;;;;;;5007632;28;20070;-56
2021/07/23 05:23:14;;;;;;;7.28;2.92;;;;;;;;;;5013488;28;20081;-54
2021/07/23 05:25:42;;;;;;;11.35;3.35;;;;;;;;;;5024385;28;20034;-53
2021/07/23 05:28:09;;;;;;;8.40;2.93;;;;;;;;;;5019095;28;20056;-52
2021/07/23 05:30:36;;;;;;;10.27;3.00;;;;;;;;;;5024011;28;20279;-54
2021/07/23 05:33:02;;;;;;;5.70;2.75;;;;;;;;;;5003961;28;20070;-54
2021/07/23 05:35:29;;;;;;;8.02;3.55;;;;;;;;;;5003065;28;20050;-53
2021/07/23 05:37:56;;;;;;;6.47;3.03;;;;;;;;;;5001016;28;20065;-54
2021/07/23 05:40:23;;;;;;;7.03;2.90;;;;;;;;;;5014574;28;20123;-55
2021/07/23 05:42:53;;;;;;;6.45;2.72;;;;;;;;;;5000949;28;20038;-52
2021/07/23 05:45:19;;;;;;;6.68;3.22;;;;;;;;;;5012544;28;20066;-52
2021/07/23 05:47:46;;;;;;;10.93;5.22;;;;;;;;;;5007234;28;20048;-55
2021/07/23 05:50:13;;;;;;;8.82;3.15;;;;;;;;;;5015511;28;20149;-55
2021/07/23 05:52:39;;;;;;;8.43;2.85;;;;;;;;;;5002930;28;20131;-57
2021/07/23 05:55:06;;;;;;;7.65;2.85;;;;;;;;;;5000666;28;20045;-55
2021/07/23 05:57:33;;;;;;;11.75;3.13;;;;;;;;;;5003734;28;20086;-55
2021/07/23 06:00:06;;;;;;;5.30;2.42;;;;;;;;;;4999220;28;20050;-52
2021/07/23 06:02:32;;;;;;;8.23;2.85;;;;;;;;;;5019308;28;20108;-56
2021/07/23 06:04:59;;;;;;;4.95;2.75;;;;;;;;;;4997099;28;20214;-56
2021/07/23 06:07:27;;;;;;;9.88;3.15;;;;;;;;;;5003543;28;20058;-55
2021/07/23 06:09:53;;;;;;;6.93;2.90;;;;;;;;;;5020506;28;20057;-55
2021/07/23 06:12:19;;;;;;;6.45;2.38;;;;;;;;;;5022989;28;20091;-53
2021/07/23 06:14:46;;;;;;;6.50;2.55;;;;;;;;;;5012654;28;20026;-55
2021/07/23 06:17:14;;;;;;;5.43;2.38;;;;;;;;;;5002259;28;20116;-56
2021/07/23 06:19:41;;;;;;;7.30;2.17;;;;;;;;;;5000686;28;20132;-55
2021/07/23 06:22:08;;;;;;;8.80;2.80;;;;;;;;;;5004502;28;20062;-55
2021/07/23 06:24:34;;;;;;;8.27;2.22;;;;;;;;;;5000923;28;20477;-56
2021/07/23 06:27:01;;;;;;;3.97;2.15;;;;;;;;;;5001521;28;20049;-55
2021/07/23 06:29:27;;;;;;;4.40;2.20;;;;;;;;;;5003383;28;20053;-55
2021/07/23 06:31:57;;;;;;;7.72;2.60;;;;;;;;;;5000119;28;20046;-54
2021/07/23 06:34:25;;;;;;;6.95;2.45;;;;;;;;;;5004195;28;20047;-56
2021/07/23 06:36:51;;;;;;;6.60;2.40;;;;;;;;;;4998659;28;20034;-55
2021/07/23 06:39:17;;;;;;;5.55;2.17;;;;;;;;;;5003913;28;20279;-56
2021/07/23 06:41:44;;;;;;;5.88;2.22;;;;;;;;;;5000869;28;20082;-57
2021/07/23 06:44:12;;;;;;;20.65;2.60;;;;;;;;;;5018650;28;20115;-54
2021/07/23 06:46:38;;;;;;;7.45;2.50;;;;;;;;;;5019317;28;20128;-56
2021/07/23 06:49:05;;;;;;;5.10;2.10;;;;;;;;;;5023404;28;20041;-55
2021/07/23 06:51:33;;;;;;;7.85;2.50;;;;;;;;;;5020171;28;20046;-56
2021/07/23 06:53:59;;;;;;;8.50;2.77;;;;;;;;;;5013064;28;20045;-55
2021/07/23 06:56:26;;;;;;;6.53;2.45;;;;;;;;;;5000114;28;20304;-55
2021/07/23 06:58:54;;;;;;;5.90;2.50;;;;;;;;;;5004258;28;20042;-55
2021/07/23 07:01:23;;;;;;;4.72;2.50;;;;;;;;;;4999598;28;20042;-55
2021/07/23 07:03:50;;;;;;;5.07;2.17;;;;;;;;;;5004381;28;20112;-56
2021/07/23 07:06:16;;;;;;;6.75;2.30;;;;;;;;;;5000001;28;20057;-54
2021/07/23 07:08:44;;;;;;;5.82;2.35;;;;;;;;;;5003503;28;20058;-55
2021/07/23 07:11:11;;;;;;;5.17;2.17;;;;;;;;;;5002120;28;20042;-55
2021/07/23 07:13:37;;;;;;;3.72;1.75;;;;;;;;;;5002320;28;20061;-56
2021/07/23 07:16:04;;;;;;;7.30;2.15;;;;;;;;;;4995345;28;20117;-57
2021/07/23 07:18:30;;;;;;;4.90;2.13;;;;;;;;;;4997566;28;20038;-57
2021/07/23 07:20:57;;;;;;;3.80;1.85;;;;;;;;;;5004197;28;20044;-55
2021/07/23 07:23:23;;;;;;;8.40;2.42;;;;;;;;;;4985617;28;20058;-57
2021/07/23 07:25:51;;;;;;;11.68;2.15;;;;;;;;;;4983406;28;20034;-55
2021/07/23 07:28:18;;;;;;;6.13;2.20;;;;;;;;;;4980776;28;20046;-57
2021/07/23 07:30:47;;;;;;;4.07;1.70;;;;;;;;;;4982603;28;20087;-56
2021/07/23 07:33:14;;;;;;;4.15;1.70;;;;;;;;;;4990083;28;20038;-56
2021/07/23 07:35:45;;;;;;;5.03;2.20;;;;;;;;;;5002183;28;20046;-55
2021/07/23 07:38:12;;;;;;;5.22;1.95;;;;;;;;;;5007655;28;20043;-55
2021/07/23 07:40:40;;;;;;;5.40;2.10;;;;;;;;;;4982339;28;20063;-56
2021/07/23 07:43:08;;;;;;;3.70;1.73;;;;;;;;;;4981407;28;20042;-55
2021/07/23 07:45:36;;;;;;;;;;;;;;;;;;4983868;28;20043;-54
2021/07/23 07:48:03;;;;;;;7.70;1.92;;;;;;;;;;4997898;28;19940;-54
2021/07/23 07:50:29;;;;;;;5.50;2.15;;;;;;;;;;5001664;28;20050;-56
2021/07/23 07:52:56;;;;;;;4.47;1.85;;;;;;;;;;4999187;28;20120;-55
2021/07/23 07:55:22;;;;;;;4.55;2.05;;;;;;;;;;4982352;28;20052;-55
2021/07/23 07:57:49;;;;;;;7.72;2.20;;;;;;;;;;4982811;28;20069;-56
2021/07/23 08:00:17;;;;;;;4.78;1.90;;;;;;;;;;4979675;28;20097;-56
2021/07/23 08:02:46;;;;;;;4.65;1.98;;;;;;;;;;4983237;28;20031;-53
2021/07/23 08:05:14;;;;;;;;;;;;;;;;;;5011882;28;20064;-57
2021/07/23 08:07:43;;;;;;;7.07;2.20;;;;;;;;;;5020982;28;19925;-54
2021/07/23 08:10:13;;;;;;;5.75;2.42;;;;;;;;;;5017764;28;20049;-53
2021/07/23 08:12:40;;;;;;;7.82;2.67;;;;;;;;;;5021552;28;20062;-56
2021/07/23 08:15:06;;;;;;;5.65;2.10;;;;;;;;;;5020489;28;20041;-54
2021/07/23 08:17:36;;;;;;;5.68;2.25;;;;;;;;;;5021891;28;20050;-56
2021/07/23 08:20:03;;;;;;;9.07;2.47;;;;;;;;;;5018479;28;20042;-53
2021/07/23 08:22:30;;;;;;;7.18;2.15;;;;;;;;;;5021559;28;20203;-56
2021/07/23 08:24:56;;;;;;;4.40;2.22;;;;;;;;;;5017919;28;20127;-56
2021/07/23 08:27:24;;;;;;;4.00;2.03;;;;;;;;;;5021821;28;20034;-56
2021/07/23 08:29:51;;;;;;;6.72;2.88;;;;;;;;;;5017567;28;20034;-56
2021/07/23 08:32:18;;;;;;;5.47;2.15;;;;;;;;;;5021373;28;20066;-55
2021/07/23 08:34:45;;;;;;;5.95;2.50;;;;;;;;;;5014812;28;20046;-54
2021/07/23 08:37:13;;;;;;;7.30;2.83;;;;;;;;;;5020257;28;20104;-56
2021/07/23 08:39:41;;;;;;;5.13;2.15;;;;;;;;;;5021609;28;20275;-53
2021/07/23 08:42:23;;;;;;;3.95;2.00;;;;;;;;;;5018552;28;20048;-56
2021/07/23 08:44:49;;;;;;;4.90;2.13;;;;;;;;;;5021086;28;20026;-55
2021/07/23 08:47:16;;;;;;;7.50;2.30;;;;;;;;;;5016673;28;20057;-56
2021/07/23 08:49:43;;;;;;;6.32;2.30;;;;;;;;;;5019329;28;20045;-53
2021/07/23 08:52:11;;;;;;;5.90;2.33;;;;;;;;;;5019726;28;20054;-56
2021/07/23 08:54:37;;;;;;;8.32;2.53;;;;;;;;;;5024399;28;20123;-57
2021/07/23 08:57:04;;;;;;;5.78;2.55;;;;;;;;;;5018394;28;20050;-55
2021/07/23 08:59:31;;;;;;;5.75;3.00;;;;;;;;;;5020538;28;20041;-54
2021/07/23 09:01:59;;;;;;;10.02;2.45;;;;;;;;;;5017884;28;20073;-57
2021/07/23 09:04:29;;;;;;;5.45;2.33;;;;;;;;;;5021895;28;20046;-56
2021/07/23 09:07:29;;;;;;;5.97;2.72;;;;;;;;;;5016731;28;20046;-55
2021/07/23 09:09:56;;;;;;;4.00;2.03;;;;;;;;;;5019761;28;20038;-57
2021/07/23 09:12:23;;;;;;;6.68;2.55;;;;;;;;;;5018423;28;20034;-54
2021/07/23 09:14:50;;;;;;;6.20;2.57;;;;;;;;;;5020133;28;20033;-57
2021/07/23 09:17:17;;;;;;;7.75;2.35;;;;;;;;;;5017390;28;20090;-56
2021/07/23 09:20:01;;;;;;;6.05;2.42;;;;;;;;;;5020428;28;20055;-56
2021/07/23 09:22:42;;;;;;;5.90;2.50;;;;;;;;;;5020597;28;20144;-55
2021/07/23 09:25:08;;;;;;;6.63;2.42;;;;;;;;;;5022320;28;20120;-55
2021/07/23 09:27:36;;;;;;;7.30;2.47;;;;;;;;;;5021527;28;20047;-56
2021/07/23 09:30:02;;;;;;;4.68;2.22;;;;;;;;;;5022919;28;20038;-57
2021/07/23 09:32:29;;;;;;;4.75;2.00;;;;;;;;;;5020862;28;20038;-56
2021/07/23 09:35:08;;;;;;;10.57;2.67;;;;;;;;;;5023784;28;20052;-54
2021/07/23 09:37:52;;;;;;;6.90;2.38;;;;;;;;;;5017020;28;20224;-55
2021/07/23 09:40:18;;;;;;;5.80;2.33;;;;;;;;;;5023141;28;20057;-56
2021/07/23 09:42:45;;;;;;;7.18;2.70;;;;;;;;;;5022108;28;20045;-57
2021/07/23 09:45:11;;;;;;;6.82;2.78;;;;;;;;;;5024741;28;20030;-56
2021/07/23 09:47:38;;;;;;;7.68;2.95;;;;;;;;;;5020513;28;20169;-56
2021/07/23 09:50:04;;;;;;;7.05;3.15;;;;;;;;;;5023144;28;20038;-57
2021/07/23 09:52:32;;;;;;;5.78;2.50;;;;;;;;;;5023757;28;20119;-55
2021/07/23 09:55:02;;;;;;;6.63;2.72;;;;;;;;;;5021852;28;20037;-52
2021/07/23 09:57:30;;;;;;;8.52;2.60;;;;;;;;;;5023599;28;20127;-57
2021/07/23 09:59:58;;;;;;;9.13;2.55;;;;;;;;;;5021263;28;20034;-56
2021/07/23 10:02:27;;;;;;;8.60;2.67;;;;;;;;;;5024430;28;20081;-56
2021/07/23 10:04:56;;;;;;;6.82;2.72;;;;;;;;;;5018122;28;20299;-56
2021/07/23 10:07:25;;;;;;;5.43;2.35;;;;;;;;;;5024493;28;20038;-54
2021/07/23 10:09:55;;;;;;;6.13;2.08;;;;;;;;;;5018858;28;20040;-56
2021/07/23 10:12:24;;;;;;;7.53;2.53;;;;;;;;;;5023561;28;20042;-54
2021/07/23 10:14:51;;;;;;;7.78;2.65;;;;;;;;;;5020183;28;20041;-56
2021/07/23 10:17:19;;;;;;;14.33;3.10;;;;;;;;;;5023879;28;20052;-56
2021/07/23 10:19:46;;;;;;;8.68;2.53;;;;;;;;;;5020906;28;20307;-55
2021/07/23 10:22:13;;;;;;;6.13;2.63;;;;;;;;;;5023420;28;20046;-53
2021/07/23 10:24:41;;;;;;;7.80;2.95;;;;;;;;;;5020876;28;20046;-57
2021/07/23 10:27:10;;;;;;;5.78;2.40;;;;;;;;;;5025935;28;20038;-57
2021/07/23 10:29:48;;;;;;;7.40;2.55;;;;;;;;;;5021217;28;20037;-57
2021/07/23 10:32:31;;;;;;;8.05;2.85;;;;;;;;;;5023963;28;20070;-55
2021/07/23 10:34:58;;;;;;;4.78;2.30;;;;;;;;;;5020362;28;20093;-54
2021/07/23 10:37:43;;;;;;;6.35;2.95;;;;;;;;;;5023484;28;20091;-56
2021/07/23 10:40:12;;;;;;;11.13;2.40;;;;;;;;;;5010006;28;20045;-55
2021/07/23 10:42:40;;;;;;;7.00;2.80;;;;;;;;;;5021138;28;20029;-57
2021/07/23 10:45:12;;;;;;;5.38;2.53;;;;;;;;;;5021035;28;20095;-54
2021/07/23 10:47:40;;;;;;;13.15;3.47;;;;;;;;;;5022169;28;20037;-57
2021/07/23 10:50:08;;;;;;;9.73;2.87;;;;;;;;;;5019801;28;20030;-57
2021/07/23 10:52:40;;;;;;;5.72;2.42;;;;;;;;;;5000504;28;20330;-56
2021/07/23 10:55:14;;;;;;;5.40;2.47;;;;;;;;;;5003107;28;20100;-57
2021/07/23 10:57:44;;;;;;;5.90;2.85;;;;;;;;;;5016424;28;20057;-55
2021/07/23 11:00:12;;;;;;;9.25;2.78;;;;;;;;;;5022979;28;20060;-57
2021/07/23 11:02:42;;;;;;;12.05;2.78;;;;;;;;;;5020029;28;20072;-55
2021/07/23 11:05:09;;;;;;;6.50;2.42;;;;;;;;;;5022966;28;20055;-56
2021/07/23 11:07:36;;;;;;;4.88;2.38;;;;;;;;;;5019406;28;20045;-56
2021/07/23 11:10:03;;;;;;;5.72;2.55;;;;;;;;;;5021476;28;20048;-55
2021/07/23 11:12:31;;;;;;;8.98;3.00;;;;;;;;;;5018590;28;20045;-56
2021/07/23 11:14:59;;;;;;;6.82;2.50;;;;;;;;;;5023535;28;20055;-57
2021/07/23 11:17:27;;;;;;;7.93;2.80;;;;;;;;;;5019333;28;20041;-58
2021/07/23 11:19:58;;;;;;;6.65;2.78;;;;;;;;;;5022066;28;20044;-57
2021/07/23 11:22:26;;;;;;;11.23;2.63;;;;;;;;;;5017678;28;20069;-54
2021/07/23 11:24:54;;;;;;;6.40;2.60;;;;;;;;;;5022069;28;20124;-56
2021/07/23 11:27:24;;;;;;;5.55;2.63;;;;;;;;;;5019775;28;20046;-55
2021/07/23 11:29:52;;;;;;;8.43;2.47;;;;;;;;;;5023308;28;20127;-57
2021/07/23 11:32:18;;;;;;;10.88;3.22;;;;;;;;;;5019514;28;20038;-56
2021/07/23 11:34:47;;;;;;;7.22;2.75;;;;;;;;;;5022834;28;20038;-57
2021/07/23 11:37:15;;;;;;;5.65;2.67;;;;;;;;;;5018470;28;20030;-58
2021/07/23 11:39:54;;;;;;;6.15;2.83;;;;;;;;;;5022637;28;20034;-57
2021/07/23 11:42:21;;;;;;;7.97;3.25;;;;;;;;;;5019150;28;20038;-56
2021/07/23 11:44:52;;;;;;;7.25;2.80;;;;;;;;;;5020877;28;20038;-57
2021/07/23 11:47:29;;;;;;;6.10;2.95;;;;;;;;;;5022623;28;20053;-56
2021/07/23 11:49:58;;;;;;;6.57;2.67;;;;;;;;;;5020116;28;20053;-56
2021/07/23 11:52:24;;;;;;;9.35;3.03;;;;;;;;;;5021398;28;20042;-57
2021/07/23 11:54:56;;;;;;;7.18;3.00;;;;;;;;;;5020116;28;20060;-58
2021/07/23 11:57:23;;;;;;;7.75;2.75;;;;;;;;;;5022636;28;20046;-56
2021/07/23 11:59:49;;;;;;;7.47;2.90;;;;;;;;;;5019468;28;20034;-57
2021/07/23 12:02:16;;;;;;;7.07;2.47;;;;;;;;;;5020963;28;20053;-57
2021/07/23 12:04:42;;;;;;;7.97;2.80;;;;;;;;;;5019175;28;20037;-58
2021/07/23 12:07:16;;;;;;;10.23;2.70;;;;;;;;;;5023089;28;20042;-59
2021/07/23 12:09:43;;;;;;;4.60;2.33;;;;;;;;;;5019812;28;20030;-57
2021/07/23 12:12:10;;;;;;;6.93;2.50;;;;;;;;;;5020652;28;20034;-57
2021/07/23 12:14:36;;;;;;;6.03;2.78;;;;;;;;;;5020209;28;20046;-56
2021/07/23 12:17:03;;;;;;;8.88;2.88;;;;;;;;;;5023568;28;20034;-58
2021/07/23 12:19:30;;;;;;;11.10;2.70;;;;;;;;;;5017017;28;20041;-56
2021/07/23 12:22:08;;;;;;;6.03;2.53;;;;;;;;;;5022493;28;20095;-57
2021/07/23 12:24:36;;;;;;;9.55;3.28;;;;;;;;;;5015043;28;20053;-57
2021/07/23 12:27:14;;;;;;;9.20;3.20;;;;;;;;;;5020261;28;20042;-57
2021/07/23 12:29:41;;;;;;;11.43;3.08;;;;;;;;;;5018569;28;20156;-57
2021/07/23 12:32:15;;;;;;;10.48;3.03;;;;;;;;;;5020696;28;20188;-57
2021/07/23 12:34:42;;;;;;;10.43;3.40;;;;;;;;;;5017999;28;20073;-57
2021/07/23 12:37:16;;;;;;;9.73;3.20;;;;;;;;;;5021642;28;20041;-57
2021/07/23 12:39:50;;;;;;;7.78;3.00;;;;;;;;;;5017900;28;20069;-57
2021/07/23 12:42:18;;;;;;;6.53;2.80;;;;;;;;;;5019922;28;20053;-57
2021/07/23 12:44:44;;;;;;;8.75;2.58;;;;;;;;;;5021062;28;20058;-57
2021/07/23 12:47:15;;;;;;;4.95;2.38;;;;;;;;;;5008981;28;20073;-57
2021/07/23 12:49:42;;;;;;;9.73;2.67;;;;;;;;;;5021919;28;20038;-55
2021/07/23 12:52:08;;;;;;;10.30;3.03;;;;;;;;;;5017077;28;20139;-57
2021/07/23 12:54:35;;;;;;;8.55;2.90;;;;;;;;;;5021356;28;20050;-57
2021/07/23 12:57:13;;;;;;;8.48;3.17;;;;;;;;;;5020999;28;20057;-57
2021/07/23 12:59:39;;;;;;;11.70;2.60;;;;;;;;;;5023348;28;20049;-58
2021/07/23 13:02:06;;;;;;;6.32;2.60;;;;;;;;;;5020953;28;20042;-57
2021/07/23 13:04:32;;;;;;;8.13;3.00;;;;;;;;;;5023605;28;20052;-57
2021/07/23 13:07:01;;;;;;;6.03;2.47;;;;;;;;;;5024690;28;20052;-55
2021/07/23 13:09:28;;;;;;;7.80;2.53;;;;;;;;;;5028950;28;20038;-57
2021/07/23 13:11:54;;;;;;;6.47;2.72;;;;;;;;;;5023582;28;20098;-57
2021/07/23 13:14:22;;;;;;;8.38;2.85;;;;;;;;;;5021074;28;20049;-56
2021/07/23 13:16:49;;;;;;;5.13;2.42;;;;;;;;;;5026880;28;20033;-58
2021/07/23 13:19:16;;;;;;;6.82;2.45;;;;;;;;;;5024362;28;20049;-55
2021/07/23 13:21:44;;;;;;;5.75;2.90;;;;;;;;;;5023168;28;20034;-56
2021/07/23 13:24:10;;;;;;;;;;;;;;;;;;5019892;28;20049;-54
2021/07/23 13:26:37;;;;;;;9.43;2.60;;;;;;;;;;5022688;28;19917;-57
2021/07/23 13:29:06;;;;;;;4.82;2.47;;;;;;;;;;5008274;28;20130;-57
2021/07/23 13:31:33;;;;;;;8.65;2.55;;;;;;;;;;5004347;28;20052;-58
2021/07/23 13:34:00;;;;;;;10.38;2.75;;;;;;;;;;5002552;28;20034;-55
2021/07/23 13:36:28;;;;;;;4.85;2.28;;;;;;;;;;5004908;28;20038;-58
2021/07/23 13:38:59;;;;;;;7.15;3.20;;;;;;;;;;5008946;28;20038;-57
2021/07/23 13:41:27;;;;;;;7.95;2.88;;;;;;;;;;5021531;28;20042;-56
2021/07/23 13:43:54;;;;;;;5.53;2.40;;;;;;;;;;5017871;28;20049;-57
2021/07/23 13:46:25;;;;;;;6.55;2.67;;;;;;;;;;5024527;28;20061;-57
2021/07/23 13:48:53;;;;;;;5.93;2.17;;;;;;;;;;5018748;28;20090;-57
2021/07/23 13:51:20;;;;;;;9.02;3.03;;;;;;;;;;5003211;28;20046;-58
2021/07/23 13:53:47;;;;;;;9.02;3.75;;;;;;;;;;5002096;28;20042;-56
2021/07/23 13:56:14;;;;;;;6.15;3.03;;;;;;;;;;5023763;28;20053;-58
2021/07/23 13:58:41;;;;;;;8.27;3.10;;;;;;;;;;5001265;28;20057;-57
2021/07/23 14:01:08;;;;;;;8.30;3.15;;;;;;;;;;5000198;28;20042;-57
2021/07/23 14:03:34;;;;;;;7.63;3.13;;;;;;;;;;5003236;28;20050;-57
2021/07/23 14:06:02;;;;;;;6.85;3.25;;;;;;;;;;4998984;28;20097;-58
2021/07/23 14:08:28;;;;;;;7.88;3.13;;;;;;;;;;5003294;28;20034;-58
2021/07/23 14:10:55;;;;;;;8.35;2.90;;;;;;;;;;4998964;28;20042;-57
2021/07/23 14:13:21;;;;;;;7.47;3.55;;;;;;;;;;5004012;28;20046;-57
2021/07/23 14:15:48;;;;;;;10.20;3.42;;;;;;;;;;4999102;28;20038;-57
2021/07/23 14:18:14;;;;;;;8.40;2.97;;;;;;;;;;5005056;28;20046;-56
2021/07/23 14:20:41;;;;;;;7.72;3.78;;;;;;;;;;5000354;28;20050;-57
2021/07/23 14:23:09;;;;;;;5.95;2.90;;;;;;;;;;5003833;28;20124;-58
2021/07/23 14:25:35;;;;;;;8.55;3.50;;;;;;;;;;5000118;28;20057;-57
2021/07/23 14:28:04;;;;;;;8.48;3.15;;;;;;;;;;5005247;28;20038;-57
2021/07/23 14:30:30;;;;;;;8.75;3.38;;;;;;;;;;5000778;28;20034;-56
2021/07/23 14:32:57;;;;;;;10.45;3.20;;;;;;;;;;5005866;28;20058;-59
2021/07/23 14:35:23;;;;;;;7.38;3.15;;;;;;;;;;4999879;28;20052;-57
2021/07/23 14:37:50;;;;;;;12.57;3.20;;;;;;;;;;4985702;28;20034;-56
2021/07/23 14:40:18;;;;;;;7.40;3.20;;;;;;;;;;5000239;28;20039;-56
2021/07/23 14:42:44;;;;;;;7.57;3.47;;;;;;;;;;4999466;28;20042;-57
2021/07/23 14:45:11;;;;;;;9.90;3.30;;;;;;;;;;5004305;28;20048;-58
2021/07/23 14:47:38;;;;;;;6.70;3.00;;;;;;;;;;4999555;28;20054;-57